Time;durP1;ratioP1;P1;durP2;ratioP2;P2;SDS_P1;SDS_P2;PMS_P1;PMS_P2;Temp;Humidity;BMP_temperature;BMP_pressure;BME280_temperature;BME280_humidity;BME280_pressure;Samples;Min_cycle;Max_cycle;Signal;HPM_P1;HPM_P2
2022/05/21 00:01:28;;;;;;;38.97;21.13;;;11.00;99.90;;;;;;5037312;28;20049;-75
2022/05/21 00:03:54;;;;;;;37.33;22.05;;;11.10;99.90;;;;;;5037382;28;20047;-77
2022/05/21 00:06:20;;;;;;;34.03;21.50;;;11.10;99.90;;;;;;5037071;28;20329;-76
2022/05/21 00:08:46;;;;;;;34.72;23.05;;;11.20;99.90;;;;;;5054667;28;20081;-75
2022/05/21 00:11:12;;;;;;;39.20;23.05;;;11.30;99.90;;;;;;5054565;28;20070;-76
2022/05/21 00:13:38;;;;;;;39.72;23.38;;;11.40;99.90;;;;;;5036597;28;20037;-76
2022/05/21 00:16:05;;;;;;;40.17;21.83;;;11.40;99.90;;;;;;5036809;28;20372;-76
2022/05/21 00:18:32;;;;;;;39.75;23.90;;;11.50;99.90;;;;;;5054495;28;20339;-76
2022/05/21 00:20:58;;;;;;;38.90;23.23;;;11.60;99.90;;;;;;5036987;28;20132;-73
2022/05/21 00:23:32;;;;;;;36.97;21.85;;;11.70;99.90;;;;;;5054206;28;20143;-74
2022/05/21 00:26:08;;;;;;;33.05;20.48;;;11.70;99.90;;;;;;5068624;28;20063;-75
2022/05/21 00:28:39;;;;;;;30.70;19.25;;;11.80;99.90;;;;;;5057046;28;20581;-73
2022/05/21 00:31:07;;;;;;;35.75;20.30;;;11.80;99.90;;;;;;5056865;28;20044;-75
2022/05/21 00:33:34;;;;;;;31.13;19.98;;;11.90;99.90;;;;;;5056850;28;20350;-74
2022/05/21 00:35:59;;;;;;;32.60;20.27;;;11.90;99.90;;;;;;5073955;28;20132;-76
2022/05/21 00:38:26;;;;;;;36.55;20.60;;;11.90;99.90;;;;;;5056519;28;20080;-75
2022/05/21 00:40:53;;;;;;;33.88;20.25;;;12.00;99.90;;;;;;5056144;28;20122;-75
2022/05/21 00:43:41;;;;;;;29.25;18.35;;;12.10;99.90;;;;;;5073745;28;20044;-75
2022/05/21 00:46:12;;;;;;;28.45;16.48;;;12.20;99.90;;;;;;5073923;28;20323;-75
2022/05/21 00:48:39;;;;;;;31.23;18.70;;;12.30;99.90;;;;;;5056973;28;20125;-75
2022/05/21 00:51:09;;;;;;;29.00;17.05;;;12.30;99.90;;;;;;5073554;28;20051;-75
2022/05/21 00:53:35;;;;;;;32.83;16.50;;;12.40;99.90;;;;;;5056426;28;20044;-75
2022/05/21 00:56:01;;;;;;;28.60;16.27;;;12.40;99.90;;;;;;5073703;28;20040;-76
2022/05/21 01:01:15;;;;;;;30.15;17.05;;;12.50;99.90;;;;;;5073339;28;20178;-77
2022/05/21 01:03:43;;;;;;;31.95;19.00;;;12.60;99.90;;;;;;5055790;28;20063;-77
2022/05/21 01:06:10;;;;;;;23.17;16.83;;;12.60;99.90;;;;;;5073314;28;20058;-77
2022/05/21 01:08:37;;;;;;;33.25;17.63;;;12.60;99.90;;;;;;5087717;28;20086;-74
2022/05/21 01:11:09;;;;;;;31.70;19.58;;;12.60;99.90;;;;;;5085342;28;20342;-75
2022/05/21 01:13:38;;;;;;;37.33;19.92;;;12.60;99.90;;;;;;5073131;28;20044;-77
2022/05/21 01:16:05;;;;;;;33.65;19.20;;;12.60;99.90;;;;;;5073071;28;20037;-74
2022/05/21 01:18:30;;;;;;;31.58;21.25;;;12.60;99.90;;;;;;5073024;28;20386;-74
2022/05/21 01:20:59;;;;;;;36.85;22.58;;;12.60;99.90;;;;;;5073675;28;20366;-76
2022/05/21 01:23:26;;;;;;;39.67;24.52;;;12.60;99.90;;;;;;5073356;28;20075;-74
2022/05/21 01:25:53;;;;;;;40.35;23.88;;;12.60;99.90;;;;;;5072681;28;20052;-74
2022/05/21 01:28:24;;;;;;;42.10;24.63;;;12.60;99.90;;;;;;5072908;28;20503;-77
2022/05/21 01:30:59;;;;;;;41.38;24.45;;;12.60;99.90;;;;;;5055382;28;20062;-76
2022/05/21 01:33:33;;;;;;;43.67;23.98;;;12.60;99.90;;;;;;5072612;28;20049;-75
2022/05/21 01:36:00;;;;;;;40.25;24.60;;;12.60;99.90;;;;;;5072990;28;20350;-76
2022/05/21 01:38:30;;;;;;;40.17;24.17;;;12.60;99.90;;;;;;5072394;28;20086;-75
2022/05/21 01:40:57;;;;;;;45.47;24.95;;;12.60;99.90;;;;;;5055361;28;20041;-76
2022/05/21 01:46:09;;;;;;;55.40;25.88;;;12.60;99.90;;;;;;5072611;28;20123;-77
2022/05/21 01:48:35;;;;;;;39.53;23.08;;;12.60;99.90;;;;;;5072663;28;20415;-75
2022/05/21 01:51:01;;;;;;;46.35;25.17;;;12.60;99.90;;;;;;5055543;28;20060;-78
2022/05/21 01:53:28;;;;;;;31.70;18.25;;;12.60;99.90;;;;;;5056133;28;20131;-75
2022/05/21 01:55:57;;;;;;;30.10;14.90;;;12.60;99.90;;;;;;5051863;28;20572;-75
2022/05/21 01:58:22;;;;;;;27.50;12.05;;;12.70;99.90;;;;;;5055231;28;20135;-76
2022/05/21 02:00:48;;;;;;;20.73;9.23;;;12.70;99.90;;;;;;5055197;28;20119;-75
2022/05/21 02:03:15;;;;;;;26.73;10.23;;;12.70;99.90;;;;;;5054872;28;20110;-76
2022/05/21 02:05:44;;;;;;;23.90;10.38;;;12.80;99.90;;;;;;5072282;28;20392;-74
2022/05/21 02:08:12;;;;;;;27.88;9.30;;;12.90;99.90;;;;;;5054727;28;20048;-77
2022/05/21 02:10:38;;;;;;;30.75;11.27;;;12.90;99.90;;;;;;5071972;28;20051;-75
2022/05/21 02:13:04;;;;;;;21.85;10.10;;;12.90;99.90;;;;;;5072125;28;20044;-75
2022/05/21 02:15:30;;;;;;;18.50;8.88;;;12.90;99.90;;;;;;5068488;28;20119;-76
2022/05/21 02:17:57;;;;;;;19.50;8.05;;;12.90;99.90;;;;;;5053948;28;20131;-77
2022/05/21 02:20:22;;;;;;;23.80;7.93;;;13.00;99.90;;;;;;5038269;28;20063;-76
2022/05/21 02:22:48;;;;;;;19.48;8.38;;;13.00;99.90;;;;;;5071934;28;20040;-76
2022/05/21 02:25:16;;;;;;;22.55;8.15;;;13.00;99.90;;;;;;5071875;28;20101;-76
2022/05/21 02:27:43;;;;;;;20.55;8.13;;;13.00;99.90;;;;;;5072284;28;20409;-77
2022/05/21 02:30:09;;;;;;;23.80;7.70;;;13.00;99.90;;;;;;5038268;28;20083;-75
2022/05/21 02:32:35;;;;;;;17.95;7.07;;;13.00;99.90;;;;;;5054724;28;20154;-75
2022/05/21 02:35:01;;;;;;;19.05;7.78;;;13.10;99.90;;;;;;5054589;28;20115;-75
2022/05/21 02:40:11;;;;;;;23.50;7.55;;;13.00;99.90;;;;;;5054504;28;20519;-74
2022/05/21 02:42:48;;;;;;;17.50;7.35;;;13.00;99.90;;;;;;5054548;28;20041;-75
2022/05/21 02:45:19;;;;;;;24.27;7.85;;;13.00;99.90;;;;;;5072072;28;20051;-75
2022/05/21 02:47:45;;;;;;;21.33;7.32;;;13.00;99.90;;;;;;5071936;28;20063;-75
2022/05/21 02:50:18;;;;;;;21.98;7.82;;;13.00;99.90;;;;;;5071722;28;20124;-76
2022/05/21 02:52:44;;;;;;;25.58;8.07;;;13.00;99.90;;;;;;5072082;28;20079;-76
2022/05/21 02:55:12;;;;;;;22.17;6.85;;;13.10;99.90;;;;;;5071864;28;20044;-76
2022/05/21 02:57:38;;;;;;;27.38;7.05;;;13.00;99.90;;;;;;5071729;28;20460;-76
2022/05/21 03:00:09;;;;;;;23.05;7.47;;;13.10;99.90;;;;;;5071680;28;20036;-76
2022/05/21 03:02:35;;;;;;;21.23;6.15;;;13.10;99.90;;;;;;5071574;28;20044;-75
2022/05/21 03:05:03;;;;;;;20.40;6.85;;;13.10;99.90;;;;;;5070887;28;20044;-76
2022/05/21 03:07:45;;;;;;;18.20;6.18;;;13.10;99.90;;;;;;5071729;28;20037;-75
2022/05/21 03:10:23;;;;;;;18.42;6.68;;;13.10;99.90;;;;;;5054119;28;20076;-76
2022/05/21 03:12:50;;;;;;;24.73;6.85;;;13.10;99.90;;;;;;5071644;28;20044;-76
2022/05/21 03:15:17;;;;;;;19.20;6.00;;;13.10;99.90;;;;;;5053957;28;20056;-76
2022/05/21 03:17:44;;;;;;;26.08;6.43;;;13.20;99.90;;;;;;5072068;28;20338;-76
2022/05/21 03:20:13;;;;;;;23.52;5.88;;;13.10;99.90;;;;;;5071601;28;20041;-77
2022/05/21 03:22:39;;;;;;;20.05;5.90;;;13.10;99.90;;;;;;5054344;28;20162;-76
2022/05/21 03:25:06;;;;;;;20.08;5.55;;;13.10;99.90;;;;;;5053724;28;20044;-76
2022/05/21 03:27:32;;;;;;;20.73;5.70;;;13.20;99.90;;;;;;5054031;28;20048;-76
2022/05/21 03:29:57;;;;;;;24.75;5.20;;;13.20;99.90;;;;;;5057394;28;20066;-76
2022/05/21 03:32:23;;;;;;;15.73;3.88;;;13.10;99.90;;;;;;5075382;28;20047;-76
2022/05/21 03:34:49;;;;;;;17.13;3.78;;;13.20;99.90;;;;;;5075068;28;20115;-75
2022/05/21 03:37:14;;;;;;;19.40;4.78;;;13.20;99.90;;;;;;5074801;28;20051;-75
2022/05/21 03:39:40;;;;;;;14.02;4.20;;;13.20;99.90;;;;;;5074826;28;20361;-75
2022/05/21 03:42:06;;;;;;;15.02;4.63;;;13.20;99.90;;;;;;5074856;28;20048;-75
2022/05/21 03:44:32;;;;;;;14.20;5.30;;;13.20;99.90;;;;;;5074765;28;20469;-76
2022/05/21 03:46:58;;;;;;;13.88;5.03;;;13.20;99.90;;;;;;5080279;28;20036;-73
2022/05/21 03:49:25;;;;;;;19.10;4.70;;;13.20;99.90;;;;;;5075440;28;20037;-72
2022/05/21 03:51:50;;;;;;;17.90;4.57;;;13.20;99.90;;;;;;5062142;28;20049;-75
2022/05/21 03:54:16;;;;;;;16.65;4.72;;;13.20;99.90;;;;;;5057308;28;20064;-75
2022/05/21 03:56:42;;;;;;;20.40;5.40;;;13.10;99.90;;;;;;5074640;28;20040;-76
2022/05/21 03:59:08;;;;;;;16.60;5.03;;;13.10;99.90;;;;;;5074733;28;20059;-75
2022/05/21 04:01:34;;;;;;;17.75;5.10;;;13.20;99.90;;;;;;5057580;28;20416;-75
2022/05/21 04:03:59;;;;;;;14.52;4.13;;;13.20;99.90;;;;;;5074594;28;20481;-76
2022/05/21 04:06:25;;;;;;;13.85;4.13;;;13.20;99.90;;;;;;5057149;28;20040;-76
2022/05/21 04:08:51;;;;;;;15.35;4.05;;;13.20;99.90;;;;;;5057260;28;20136;-74
2022/05/21 04:11:17;;;;;;;20.33;5.10;;;13.20;99.90;;;;;;5074212;28;20071;-75
2022/05/21 04:13:43;;;;;;;14.23;4.50;;;13.20;99.90;;;;;;5074388;28;20041;-76
2022/05/21 04:16:09;;;;;;;18.05;4.55;;;13.10;99.90;;;;;;5073916;28;20040;-76
2022/05/21 04:18:34;;;;;;;13.95;3.78;;;13.10;99.90;;;;;;5071113;28;20041;-75
2022/05/21 04:21:00;;;;;;;21.98;4.88;;;13.10;99.90;;;;;;5074190;28;20102;-74
2022/05/21 04:23:26;;;;;;;10.95;4.30;;;13.10;99.90;;;;;;5074275;28;20474;-76
2022/05/21 04:25:52;;;;;;;15.95;4.72;;;13.10;99.90;;;;;;5074148;28;20117;-74
2022/05/21 04:28:18;;;;;;;16.48;3.97;;;13.10;99.90;;;;;;5074347;28;20127;-76
2022/05/21 04:30:44;;;;;;;22.08;3.63;;;13.10;99.90;;;;;;5074035;28;20458;-75
2022/05/21 04:33:10;;;;;;;18.02;4.47;;;13.10;99.90;;;;;;5074420;28;20169;-75
2022/05/21 04:38:20;;;;;;;14.15;4.18;;;13.20;99.90;;;;;;5073932;28;20048;-74
2022/05/21 04:40:46;;;;;;;14.07;4.28;;;13.20;99.90;;;;;;5072861;28;20040;-75
2022/05/21 04:43:12;;;;;;;20.33;4.03;;;13.20;99.90;;;;;;5074083;28;20048;-76
2022/05/21 04:45:37;;;;;;;18.95;4.88;;;13.20;99.90;;;;;;5073752;28;20036;-76
2022/05/21 04:48:04;;;;;;;14.82;4.30;;;13.20;99.90;;;;;;5073924;28;20306;-75
2022/05/21 04:50:30;;;;;;;14.95;3.90;;;13.20;99.90;;;;;;5056291;28;20110;-78
2022/05/21 04:52:56;;;;;;;17.25;3.80;;;13.20;99.90;;;;;;5073640;28;20044;-77
2022/05/21 04:55:22;;;;;;;13.32;4.13;;;13.20;99.90;;;;;;5055876;28;20036;-77
2022/05/21 04:57:48;;;;;;;13.95;3.72;;;13.20;99.90;;;;;;5070416;28;20041;-76
2022/05/21 05:00:16;;;;;;;19.30;4.45;;;13.10;99.90;;;;;;5073540;28;20364;-76
2022/05/21 05:02:42;;;;;;;13.38;4.00;;;13.10;99.90;;;;;;5073531;28;20083;-75
2022/05/21 05:05:08;;;;;;;18.00;3.58;;;13.10;99.90;;;;;;5073943;28;20326;-74
2022/05/21 05:07:36;;;;;;;15.07;4.40;;;13.10;99.90;;;;;;5073384;28;20051;-75
2022/05/21 05:10:03;;;;;;;17.58;4.30;;;13.10;99.90;;;;;;5073158;28;20039;-75
2022/05/21 05:12:29;;;;;;;17.67;4.53;;;13.20;99.90;;;;;;5073575;28;20044;-75
2022/05/21 05:14:55;;;;;;;17.80;4.75;;;13.20;99.90;;;;;;5056029;28;20048;-76
2022/05/21 05:17:22;;;;;;;15.85;3.88;;;13.20;99.90;;;;;;5073482;28;20410;-74
2022/05/21 05:19:47;;;;;;;16.25;3.65;;;13.20;99.90;;;;;;5073108;28;20080;-75
2022/05/21 05:22:14;;;;;;;16.02;3.95;;;13.30;99.90;;;;;;5073519;28;20086;-75
2022/05/21 05:24:39;;;;;;;20.13;4.13;;;13.30;99.90;;;;;;5069848;28;20525;-77
2022/05/21 05:27:06;;;;;;;13.65;3.25;;;13.30;99.90;;;;;;5073118;28;20082;-76
2022/05/21 05:29:32;;;;;;;17.42;4.47;;;13.30;99.90;;;;;;5073229;28;20354;-75
2022/05/21 05:31:57;;;;;;;14.57;3.97;;;13.40;99.90;;;;;;5073092;28;20033;-74
2022/05/21 05:34:23;;;;;;;18.10;4.10;;;13.50;99.90;;;;;;5055506;28;20049;-75
2022/05/21 05:36:49;;;;;;;15.00;4.38;;;13.60;99.90;;;;;;5052453;28;20147;-75
2022/05/21 05:39:16;;;;;;;19.20;4.40;;;13.60;99.90;;;;;;5073131;28;20429;-75
2022/05/21 05:41:42;;;;;;;9.65;3.35;;;13.60;99.90;;;;;;5055506;28;20036;-77
2022/05/21 05:44:09;;;;;;;16.92;3.95;;;13.60;99.90;;;;;;5072891;28;20316;-75
2022/05/21 05:46:35;;;;;;;13.48;3.15;;;13.60;99.90;;;;;;5072944;28;20412;-75
2022/05/21 05:49:01;;;;;;;12.32;3.90;;;13.70;99.90;;;;;;5073005;28;20040;-74
2022/05/21 05:51:27;;;;;;;12.65;3.67;;;13.80;99.90;;;;;;5054691;28;20048;-78
2022/05/21 05:53:53;;;;;;;16.70;3.38;;;13.80;99.90;;;;;;5072418;28;20051;-75
2022/05/21 05:56:19;;;;;;;17.88;3.95;;;13.90;99.90;;;;;;5072653;28;20041;-76
2022/05/21 06:01:32;;;;;;;14.23;3.53;;;14.00;99.90;;;;;;5055141;28;20052;-76
2022/05/21 06:03:58;;;;;;;18.88;3.65;;;14.00;99.90;;;;;;5072640;28;20053;-74
2022/05/21 06:06:25;;;;;;;12.75;3.10;;;14.00;99.90;;;;;;5054760;28;20048;-76
2022/05/21 06:08:51;;;;;;;14.48;4.35;;;14.00;99.90;;;;;;5072424;28;20048;-75
2022/05/21 06:11:18;;;;;;;18.42;4.10;;;14.00;99.90;;;;;;5054807;28;20044;-77
2022/05/21 06:13:44;;;;;;;9.68;2.90;;;14.20;99.90;;;;;;5055006;28;20040;-76
2022/05/21 06:16:10;;;;;;;17.25;4.20;;;14.30;99.90;;;;;;5054686;28;20446;-76
2022/05/21 06:18:36;;;;;;;15.65;3.33;;;14.30;99.90;;;;;;5054813;28;20158;-75
2022/05/21 06:21:05;;;;;;;9.45;2.47;;;14.40;99.90;;;;;;5054566;28;20056;-75
2022/05/21 06:23:34;;;;;;;13.68;3.55;;;14.30;99.90;;;;;;5054876;28;20045;-76
2022/05/21 06:26:01;;;;;;;9.05;2.47;;;14.40;99.90;;;;;;5053984;28;20044;-77
2022/05/21 06:28:28;;;;;;;13.32;2.85;;;14.50;99.90;;;;;;5067521;28;20444;-74
2022/05/21 06:30:55;;;;;;;11.48;3.60;;;14.80;99.90;;;;;;5087405;28;20064;-76
2022/05/21 06:33:28;;;;;;;13.02;2.70;;;14.90;99.90;;;;;;5071977;28;20051;-76
2022/05/21 06:36:11;;;;;;;12.57;2.60;;;15.10;99.90;;;;;;5072205;28;20032;-75
2022/05/21 06:38:38;;;;;;;12.25;2.60;;;15.20;99.90;;;;;;5068221;28;20055;-77
2022/05/21 06:41:04;;;;;;;14.93;3.13;;;15.20;99.90;;;;;;5071866;28;20423;-76
2022/05/21 06:43:30;;;;;;;10.30;2.67;;;15.30;99.90;;;;;;5071546;28;20116;-75
2022/05/21 06:45:56;;;;;;;10.40;2.50;;;15.50;99.90;;;;;;5071746;28;20870;-76
2022/05/21 06:48:22;;;;;;;14.68;2.47;;;15.50;99.90;;;;;;5072177;28;20080;-76
2022/05/21 06:50:48;;;;;;;7.57;2.40;;;15.50;99.90;;;;;;5071923;28;20200;-78
2022/05/21 06:53:14;;;;;;;13.50;2.92;;;15.30;99.90;;;;;;5071948;28;20072;-76
2022/05/21 06:55:41;;;;;;;9.25;2.42;;;15.20;99.90;;;;;;5054342;28;20137;-77
2022/05/21 06:58:07;;;;;;;12.63;2.55;;;15.10;99.90;;;;;;5071737;28;20044;-77
2022/05/21 07:00:33;;;;;;;10.88;2.65;;;15.20;99.90;;;;;;5054319;28;20049;-77
2022/05/21 07:02:59;;;;;;;15.27;2.50;;;15.40;99.90;;;;;;5072325;28;20051;-77
2022/05/21 07:08:22;;;;;;;10.50;3.22;;;15.90;99.90;;;;;;5075629;28;20067;-76
2022/05/21 07:10:49;;;;;;;10.57;2.63;;;15.80;99.90;;;;;;5058288;28;20138;-76
2022/05/21 07:13:19;;;;;;;12.63;2.80;;;15.70;99.90;;;;;;5058370;28;20041;-76
2022/05/21 07:15:49;;;;;;;10.18;2.83;;;15.60;99.90;;;;;;5058338;28;20040;-76
2022/05/21 07:18:19;;;;;;;14.98;3.70;;;15.40;99.90;;;;;;5058273;28;20051;-76
2022/05/21 07:20:49;;;;;;;13.68;3.33;;;15.40;99.90;;;;;;5075543;28;20024;-83
2022/05/21 07:23:15;;;;;;;10.73;3.47;;;15.70;99.90;;;;;;5057484;28;20049;-81
2022/05/21 07:25:41;;;;;;;12.02;2.45;;;16.00;99.90;;;;;;5059027;28;20416;-84
2022/05/21 07:28:08;;;;;;;11.43;2.47;;;16.20;99.90;;;;;;5072951;28;20036;-75
2022/05/21 07:30:35;;;;;;;10.73;2.97;;;16.20;99.90;;;;;;5076573;28;20357;-77
2022/05/21 07:33:01;;;;;;;7.32;2.15;;;16.20;99.90;;;;;;5075551;28;20047;-77
2022/05/21 07:35:27;;;;;;;12.00;2.30;;;16.30;99.90;;;;;;5076069;28;20446;-77
2022/05/21 07:37:53;;;;;;;12.57;2.95;;;16.30;99.90;;;;;;5040365;28;20377;-76
2022/05/21 07:40:22;;;;;;;10.27;2.65;;;16.40;99.90;;;;;;5072533;28;20045;-75
2022/05/21 07:42:48;;;;;;;8.88;2.95;;;16.60;99.90;;;;;;5075405;28;20412;-75
2022/05/21 07:45:17;;;;;;;11.55;2.55;;;16.70;99.90;;;;;;5075343;28;20515;-76
2022/05/21 07:47:43;;;;;;;10.13;2.88;;;16.60;99.90;;;;;;5075205;28;20416;-75
2022/05/21 07:50:09;;;;;;;14.88;3.17;;;16.70;99.90;;;;;;5050669;28;20119;-78
2022/05/21 07:52:35;;;;;;;9.50;2.35;;;16.80;99.90;;;;;;5076242;28;20048;-77
2022/05/21 07:55:01;;;;;;;9.85;2.53;;;16.70;99.90;;;;;;5077034;28;20052;-77
2022/05/21 07:57:27;;;;;;;8.25;2.22;;;16.90;99.90;;;;;;5076846;28;20044;-78
2022/05/21 07:59:52;;;;;;;11.20;3.40;;;17.20;99.90;;;;;;5058927;28;20044;-76
2022/05/21 08:02:19;;;;;;;11.48;2.38;;;17.30;99.90;;;;;;5075667;28;20171;-75
2022/05/21 08:04:47;;;;;;;9.90;2.78;;;17.20;99.90;;;;;;5058554;28;20055;-74
2022/05/21 08:07:13;;;;;;;10.98;2.60;;;17.00;99.90;;;;;;5076164;28;20040;-74
2022/05/21 08:09:39;;;;;;;9.38;2.20;;;16.90;99.90;;;;;;5076020;28;20052;-75
2022/05/21 08:12:07;;;;;;;9.95;2.30;;;17.00;99.90;;;;;;5075497;28;20687;-75
2022/05/21 08:14:33;;;;;;;11.23;2.50;;;17.10;99.90;;;;;;5074221;28;20044;-77
2022/05/21 08:16:59;;;;;;;5.97;2.15;;;17.30;99.90;;;;;;5070940;28;20045;-76
2022/05/21 08:19:25;;;;;;;10.10;2.45;;;17.50;99.90;;;;;;5076486;28;20044;-78
2022/05/21 08:21:52;;;;;;;7.35;1.95;;;17.70;99.90;;;;;;5054279;28;20054;-75
2022/05/21 08:27:03;;;;;;;9.18;2.75;;;17.70;99.90;;;;;;5074325;28;20059;-79
2022/05/21 08:29:35;;;;;;;7.78;2.33;;;18.00;99.90;;;;;;5074746;28;20067;-76
2022/05/21 08:32:03;;;;;;;9.02;2.08;;;17.90;99.90;;;;;;5074604;28;20044;-78
2022/05/21 08:34:29;;;;;;;8.85;2.08;;;17.70;99.90;;;;;;5056844;28;20113;-77
2022/05/21 08:36:56;;;;;;;10.80;2.80;;;17.90;99.90;;;;;;5074414;28;20346;-80
2022/05/21 08:39:22;;;;;;;9.65;2.53;;;18.20;99.90;;;;;;5074219;28;20062;-77
2022/05/21 08:42:04;;;;;;;10.68;2.58;;;18.20;99.90;;;;;;5068076;28;20052;-77
2022/05/21 08:44:43;;;;;;;8.23;2.47;;;18.10;99.90;;;;;;5074164;28;20040;-79
2022/05/21 08:47:21;;;;;;;7.40;2.27;;;18.20;99.90;;;;;;5073697;28;20128;-78
2022/05/21 08:50:16;;;;;;;11.40;2.38;;;18.20;99.90;;;;;;5074230;28;20087;-78
2022/05/21 08:52:49;;;;;;;10.32;2.83;;;18.40;99.90;;;;;;5056522;28;20055;-76
2022/05/21 08:55:22;;;;;;;10.95;2.38;;;18.40;99.90;;;;;;5074002;28;20409;-79
2022/05/21 08:57:56;;;;;;;11.48;2.50;;;18.10;99.90;;;;;;5073610;28;20385;-77
2022/05/21 09:00:25;;;;;;;11.38;2.78;;;17.80;99.90;;;;;;5073679;28;20452;-78
2022/05/21 09:02:52;;;;;;;9.13;2.10;;;17.60;99.90;;;;;;5039593;28;20040;-80
2022/05/21 09:05:21;;;;;;;9.85;2.90;;;17.50;99.90;;;;;;5073839;28;20437;-77
2022/05/21 09:07:57;;;;;;;12.32;2.60;;;17.80;99.90;;;;;;5073580;28;20449;-79
2022/05/21 09:10:44;;;;;;;10.32;2.83;;;17.90;99.90;;;;;;5056220;28;20052;-77
2022/05/21 09:13:20;;;;;;;12.55;3.20;;;17.60;99.90;;;;;;5073676;28;20040;-77
2022/05/21 09:18:33;;;;;;;9.45;2.67;;;17.90;99.90;;;;;;5080140;28;20060;-75
2022/05/21 09:21:10;;;;;;;12.30;2.92;;;18.40;99.90;;;;;;5074066;28;20036;-79
2022/05/21 09:23:50;;;;;;;9.98;2.90;;;18.70;99.90;;;;;;5073426;28;20229;-79
2022/05/21 09:26:18;;;;;;;9.02;2.63;;;19.00;99.90;;;;;;5072628;28;20072;-79
2022/05/21 09:28:44;;;;;;;11.88;2.50;;;19.20;99.90;;;;;;5072870;28;20317;-78
2022/05/21 09:31:11;;;;;;;8.35;2.67;;;19.40;99.90;;;;;;5072968;28;20052;-79
2022/05/21 09:33:46;;;;;;;9.40;2.75;;;19.30;99.90;;;;;;5069539;28;20045;-79
2022/05/21 09:36:18;;;;;;;9.82;2.33;;;19.20;99.90;;;;;;5068983;28;20052;-78
2022/05/21 09:38:55;;;;;;;8.25;2.22;;;19.10;99.90;;;;;;5055391;28;20472;-79
2022/05/21 09:41:27;;;;;;;9.48;2.45;;;19.10;99.90;;;;;;5072656;28;20129;-80
2022/05/21 09:46:44;;;;;;;13.48;2.15;;;18.60;99.90;;;;;;5055299;28;20472;-77
2022/05/21 09:49:25;;;;;;;13.18;2.50;;;18.70;99.90;;;;;;5072428;28;20358;-78
2022/05/21 09:52:03;;;;;;;10.93;2.55;;;18.80;99.90;;;;;;5055119;28;20091;-77
2022/05/21 09:54:36;;;;;;;7.93;2.38;;;18.90;99.90;;;;;;5055187;28;20041;-79
2022/05/21 09:57:02;;;;;;;9.82;2.75;;;19.10;99.90;;;;;;5072200;28;20343;-78
2022/05/21 09:59:33;;;;;;;9.27;2.85;;;19.40;99.90;;;;;;5054884;28;20040;-79
2022/05/21 10:02:19;;;;;;;10.65;2.80;;;19.50;99.90;;;;;;5054711;28;20070;-79
2022/05/21 10:04:58;;;;;;;14.30;3.25;;;19.50;99.90;;;;;;5055000;28;20451;-80
2022/05/21 10:13:20;;;;;;;8.40;2.72;;;19.60;99.90;;;;;;5072213;28;20047;-79
2022/05/21 10:15:55;;;;;;;12.65;3.03;;;19.80;99.90;;;;;;5072435;28;20055;-77
2022/05/21 10:18:41;;;;;;;7.28;1.88;;;19.80;99.90;;;;;;5072693;28;20037;-80
2022/05/21 10:21:25;;;;;;;9.75;2.38;;;19.70;99.90;;;;;;5072831;28;20048;-76
2022/05/21 10:24:02;;;;;;;11.80;2.95;;;19.40;99.90;;;;;;5072581;28;20110;-76
2022/05/21 10:26:43;;;;;;;12.02;2.55;;;19.20;99.90;;;;;;5073246;28;20052;-81
2022/05/21 10:29:08;;;;;;;12.60;2.20;;;19.30;99.90;;;;;;5055266;28;20114;-79
2022/05/21 10:32:11;;;;;;;9.93;2.67;;;19.20;99.90;;;;;;5055828;28;20048;-79
2022/05/21 10:35:16;;;;;;;8.65;2.53;;;19.00;99.90;;;;;;5055892;28;20060;-79
2022/05/21 10:38:07;;;;;;;11.05;2.50;;;18.90;99.90;;;;;;5054917;28;20048;-79
2022/05/21 10:40:44;;;;;;;9.90;2.67;;;18.80;99.90;;;;;;5073716;28;20041;-78
2022/05/21 10:43:31;;;;;;;12.38;3.38;;;19.00;99.90;;;;;;5056881;28;20071;-80
2022/05/21 10:46:09;;;;;;;14.27;2.90;;;19.10;99.90;;;;;;5040030;28;20103;-78
2022/05/21 10:49:13;;;;;;;10.18;2.83;;;18.90;99.90;;;;;;5057159;28;20049;-78
2022/05/21 10:52:04;;;;;;;8.13;2.28;;;18.80;99.90;;;;;;4973159;28;20054;-79
2022/05/21 10:54:45;;;;;;;11.25;2.90;;;19.20;99.90;;;;;;5048932;28;20082;-78
2022/05/21 10:57:20;;;;;;;9.10;2.45;;;19.20;99.90;;;;;;5074524;28;20044;-79
2022/05/21 11:00:05;;;;;;;12.63;3.25;;;19.20;99.90;;;;;;5072888;28;20358;-78
2022/05/21 11:03:08;;;;;;;9.70;2.97;;;19.40;99.90;;;;;;5072340;28;20412;-79
2022/05/21 11:05:42;;;;;;;10.38;2.17;;;19.60;99.90;;;;;;5054467;28;20397;-79
2022/05/21 11:08:17;;;;;;;9.88;2.55;;;19.70;99.90;;;;;;5054425;28;20449;-80
2022/05/21 11:10:45;;;;;;;10.85;2.60;;;19.70;99.90;;;;;;5068625;28;20357;-79
2022/05/21 11:13:36;;;;;;;10.13;2.40;;;19.90;99.90;;;;;;5054391;28;20044;-80
2022/05/21 11:16:25;;;;;;;7.30;1.75;;;20.00;99.90;;;;;;5071489;28;20102;-80
2022/05/21 11:19:02;;;;;;;8.63;2.33;;;20.10;99.90;;;;;;5071928;28;20048;-79
2022/05/21 11:21:34;;;;;;;9.57;2.53;;;20.10;99.90;;;;;;5054683;28;20049;-79
2022/05/21 11:24:28;;;;;;;10.40;2.55;;;20.10;99.90;;;;;;5054489;28;20446;-79
2022/05/21 11:27:24;;;;;;;10.75;2.50;;;20.00;99.90;;;;;;5053500;28;20045;-78
2022/05/21 11:30:07;;;;;;;12.40;2.40;;;19.90;99.90;;;;;;5034365;28;20049;-79
2022/05/21 11:38:45;;;;;;;8.77;2.70;;;19.90;99.90;;;;;;5051620;28;20413;-85
2022/05/21 11:41:24;;;;;;;6.85;2.15;;;19.80;99.90;;;;;;5019130;28;20041;-79
2022/05/21 11:47:14;;;;;;;7.72;2.08;;;19.60;99.90;;;;;;5034415;28;20138;-81
2022/05/21 11:49:44;;;;;;;7.70;2.22;;;19.50;99.90;;;;;;5052341;28;20041;-80
2022/05/21 11:52:34;;;;;;;7.03;2.05;;;19.50;99.90;;;;;;5037907;28;20052;-80
2022/05/21 11:55:01;;;;;;;7.57;1.70;;;19.70;99.90;;;;;;5044697;28;20040;-76
2022/05/21 11:57:50;;;;;;;8.85;2.42;;;19.90;99.90;;;;;;5067720;28;20052;-77
2022/05/21 12:00:22;;;;;;;8.33;2.30;;;20.00;99.90;;;;;;5055510;28;20440;-79
2022/05/21 12:02:54;;;;;;;6.80;2.03;;;20.00;99.90;;;;;;5037720;28;20124;-78
2022/05/21 12:05:35;;;;;;;8.63;2.00;;;20.10;99.90;;;;;;5054819;28;20052;-78
2022/05/21 12:08:15;;;;;;;12.02;1.85;;;20.00;99.90;;;;;;5037519;28;20045;-79
2022/05/21 12:10:55;;;;;;;7.22;1.83;;;19.80;99.90;;;;;;5055108;28;20060;-79
2022/05/21 12:13:48;;;;;;;8.63;2.13;;;19.90;99.90;;;;;;5054787;28;20037;-78
2022/05/21 12:16:17;;;;;;;7.15;1.98;;;20.00;99.90;;;;;;5041632;28;20088;-79
2022/05/21 12:18:42;;;;;;;9.20;2.10;;;20.10;99.90;;;;;;5037232;28;20045;-78
2022/05/21 12:21:30;;;;;;;6.18;2.20;;;20.20;99.90;;;;;;5054776;28;20051;-78
2022/05/21 12:23:55;;;;;;;8.68;2.35;;;20.20;99.90;;;;;;5037082;28;20052;-79
2022/05/21 12:26:23;;;;;;;10.57;2.72;;;20.10;99.90;;;;;;5050329;28;20049;-77
2022/05/21 12:29:09;;;;;;;8.98;2.72;;;20.10;99.90;;;;;;5074712;28;20056;-78
2022/05/21 12:31:45;;;;;;;6.85;2.17;;;20.10;99.90;;;;;;5062477;28;20449;-78
2022/05/21 12:34:34;;;;;;;9.00;1.52;;;20.00;99.40;;;;;;5071327;28;20509;-80
2022/05/21 12:37:10;;;;;;;9.00;1.63;;;19.90;99.90;;;;;;5061454;28;20067;-79
2022/05/21 12:40:00;;;;;;;6.88;1.52;;;20.00;99.90;;;;;;5074349;28;20377;-79
2022/05/21 12:42:29;;;;;;;6.05;1.60;;;20.10;99.70;;;;;;5073394;28;20106;-78
2022/05/21 12:44:55;;;;;;;6.43;1.60;;;20.10;99.70;;;;;;5074241;28;20117;-79
2022/05/21 12:47:30;;;;;;;10.07;1.95;;;20.10;99.10;;;;;;5073928;28;20449;-78
2022/05/21 12:49:57;;;;;;;8.57;1.80;;;20.00;97.90;;;;;;5074009;28;20456;-78
2022/05/21 12:52:51;;;;;;;11.68;2.25;;;19.90;99.00;;;;;;5074036;28;20502;-79
2022/05/21 12:55:28;;;;;;;8.07;2.67;;;20.00;99.50;;;;;;5053236;28;20052;-79
2022/05/21 12:58:14;;;;;;;8.30;1.92;;;20.10;99.60;;;;;;5073547;28;20438;-78
2022/05/21 13:00:54;;;;;;;9.18;2.00;;;20.00;98.60;;;;;;5055839;28;20098;-78
2022/05/21 13:03:22;;;;;;;8.60;2.67;;;19.90;98.50;;;;;;5074055;28;20431;-77
2022/05/21 13:05:58;;;;;;;8.15;1.90;;;19.90;99.10;;;;;;5073865;28;20084;-78
2022/05/21 13:08:25;;;;;;;10.30;2.17;;;20.00;99.00;;;;;;5073875;28;20075;-79
2022/05/21 13:10:59;;;;;;;6.35;1.83;;;19.90;98.90;;;;;;5073714;28;20044;-78
2022/05/21 13:13:26;;;;;;;7.28;1.75;;;19.80;99.20;;;;;;5073836;28;20044;-79
2022/05/21 13:15:57;;;;;;;10.85;3.05;;;19.80;98.50;;;;;;5073336;28;20153;-78
2022/05/21 13:18:42;;;;;;;7.88;1.98;;;19.60;99.70;;;;;;5055823;28;20048;-80
2022/05/21 13:21:13;;;;;;;8.55;2.78;;;19.60;98.90;;;;;;5056191;28;20228;-80
2022/05/21 13:24:00;;;;;;;10.20;2.75;;;19.30;99.10;;;;;;5073591;28;20045;-79
2022/05/21 13:26:29;;;;;;;12.85;2.70;;;19.10;99.90;;;;;;5055237;28;20136;-79
2022/05/21 13:29:15;;;;;;;12.95;3.47;;;18.80;99.90;;;;;;5073323;28;20087;-79
2022/05/21 13:31:41;;;;;;;11.05;2.70;;;18.40;99.90;;;;;;5055608;28;20055;-78
2022/05/21 13:34:07;;;;;;;9.02;3.45;;;18.30;99.90;;;;;;5069755;28;20052;-78
2022/05/21 13:36:34;;;;;;;11.50;2.97;;;18.20;99.90;;;;;;5055317;28;20466;-78